This is the latest recevied weather packets stored in our database for station/object KA3BQE-13. If no packets are shown the sender has not sent any weather packets the latest 10 day(s).
| Time | Temp. | Humidity | Pressure | Rain* | Wind** | Luminosity | Snow |
|---|---|---|---|---|---|---|---|
| 1778072152 | 7.78° C | 77% | 1015.9 hPa | 0 mm | - | 56 W/m² | - |
| 1778071849 | 7.78° C | 75% | 1015.7 hPa | 0 mm | - | 58 W/m² | - |
| 1778071546 | 7.78° C | 77% | 1015.5 hPa | 0 mm | - | 61 W/m² | - |
| 1778071244 | 7.78° C | 76% | 1015.4 hPa | 0 mm | - | 66 W/m² | - |
| 1778070942 | 7.78° C | 76% | 1015.1 hPa | 0 mm | - | 74 W/m² | - |
| 1778070640 | 7.78° C | 77% | 1015.2 hPa | 0 mm | - | 96 W/m² | - |
| 1778070336 | 7.78° C | 74% | 1015 hPa | 0 mm | - | 86 W/m² | - |
| 1778070034 | 7.78° C | 74% | 1015 hPa | 0 mm | - | 88 W/m² | - |
| 1778069731 | 7.78° C | 75% | 1014.8 hPa | 0 mm | - | 127 W/m² | - |
| 1778069427 | 7.22° C | 77% | 1014.6 hPa | 0 mm | - | 99 W/m² | - |
| 1778069126 | 6.67° C | 81% | 1014.7 hPa | 0 mm | - | 85 W/m² | - |
| 1778068823 | 6.11° C | 81% | 1014.4 hPa | 0 mm | - | 55 W/m² | - |
| 1778068521 | 6.11° C | 83% | 1014.7 hPa | 0 mm | - | 37 W/m² | - |
| 1778068219 | 6.11° C | 81% | 1014.4 hPa | 0 mm | - | 39 W/m² | - |
| 1778067916 | 6.67° C | 80% | 1014.3 hPa | 0 mm | - | 37 W/m² | - |
| 1778067615 | 6.67° C | 81% | 1014.1 hPa | 0 mm | - | 34 W/m² | - |
| 1778067312 | 6.67° C | 80% | 1013.8 hPa | 0 mm | - | 29 W/m² | - |
| 1778067009 | 6.67° C | 80% | 1013.7 hPa | 0 mm | - | 40 W/m² | - |
| 1778066705 | 6.11° C | 82% | 1013.7 hPa | 0 mm | - | 31 W/m² | - |
| 1778066403 | 5.56° C | 81% | 1013.4 hPa | 0 mm | - | 24 W/m² | - |
| 1778066101 | 5.56° C | 84% | 1013.5 hPa | 0 mm | - | 18 W/m² | - |
| 1778065797 | 5° C | 85% | 1013.3 hPa | 0 mm | - | 15 W/m² | - |
| 1778065495 | 4.44° C | 88% | 1013.5 hPa | 0 mm | - | 10 W/m² | - |
| 1778065192 | 4.44° C | 90% | 1013.4 hPa | 0 mm | - | 7 W/m² | - |
| 1778064888 | 3.89° C | 94% | 1013.4 hPa | 0 mm | - | 4 W/m² | - |
* Rain latest hour (hover to see other rain measurements)
** Current wind speed in m/s (hover to see current wind gust speed)